LGRP/RHO METAR and TAF weather

Enter ICAO airport designator
Station Type Date Time Source
LGRP METAR 2019/04/22 17:50 UTC NOAA

LGRP 221750Z 25007KT 9999 FEW020 17/09 Q1017 NOSIG


Station Type Date Time Source
LGRP Decoded METAR 2019/04/22 17:50 UTC NOAA

Rhodes Airport , Greece (LGRP) 36-24N 028-05E 11M
Apr 22, 2019 - 01:50 PM EDT / 2019.04.22 1750 UTC
Wind: from the WSW (250 degrees) at 8 MPH (7 KT):0
Visibility: greater than 7 mile(s):0
Sky conditions: mostly clear
Temperature: 62 F (17 C)
Dew Point: 48 F (9 C)
Relative Humidity: 59%
Pressure (altimeter): 30.03 in. Hg (1017 hPa)
ob: LGRP 221750Z 25007KT 9999 FEW020 17/09 Q1017 NOSIG
cycle: 18

Station Type Date Time Source
LGRP TAF 2019/04/22 18:16 UTC NOAA

TAF LGRP 221700Z 2218/2318 29010KT 9999 FEW020
BECMG 2300/2302 10010KT
BECMG 2308/2310 16012KT FEW020 BKN050

Example: see airport list